sensor_id;sensor_type;location;lat;lon;timestamp;temperature;humidity
13569;DHT22;6856;51.460;7.158;2023-05-19T00:02:31;14.60;46.90
13569;DHT22;6856;51.460;7.158;2023-05-19T00:05:09;14.50;46.90
13569;DHT22;6856;51.460;7.158;2023-05-19T00:07:47;14.50;47.00
13569;DHT22;6856;51.460;7.158;2023-05-19T00:10:25;14.50;47.00
13569;DHT22;6856;51.460;7.158;2023-05-19T00:13:04;14.50;47.10
13569;DHT22;6856;51.460;7.158;2023-05-19T00:15:39;14.40;47.20
13569;DHT22;6856;51.460;7.158;2023-05-19T00:18:14;14.40;47.30
13569;DHT22;6856;51.460;7.158;2023-05-19T00:20:51;14.30;47.40
13569;DHT22;6856;51.460;7.158;2023-05-19T00:23:26;14.30;47.50
13569;DHT22;6856;51.460;7.158;2023-05-19T00:26:00;14.20;47.60
13569;DHT22;6856;51.460;7.158;2023-05-19T00:28:34;14.20;47.60
13569;DHT22;6856;51.460;7.158;2023-05-19T00:31:08;14.10;47.50
13569;DHT22;6856;51.460;7.158;2023-05-19T00:33:42;14.10;47.70
13569;DHT22;6856;51.460;7.158;2023-05-19T00:36:18;14.00;47.80
13569;DHT22;6856;51.460;7.158;2023-05-19T00:38:51;13.90;47.80
13569;DHT22;6856;51.460;7.158;2023-05-19T00:41:28;13.90;48.00
13569;DHT22;6856;51.460;7.158;2023-05-19T00:44:02;13.80;48.00
13569;DHT22;6856;51.460;7.158;2023-05-19T00:46:39;13.80;48.20
13569;DHT22;6856;51.460;7.158;2023-05-19T00:49:13;13.70;48.20
13569;DHT22;6856;51.460;7.158;2023-05-19T00:51:49;13.70;48.20
13569;DHT22;6856;51.460;7.158;2023-05-19T00:54:23;13.60;48.20
13569;DHT22;6856;51.460;7.158;2023-05-19T00:56:58;13.60;48.20
13569;DHT22;6856;51.460;7.158;2023-05-19T00:59:33;13.50;48.20
13569;DHT22;6856;51.460;7.158;2023-05-19T01:02:09;13.50;48.40
13569;DHT22;6856;51.460;7.158;2023-05-19T01:04:44;13.50;48.40
13569;DHT22;6856;51.460;7.158;2023-05-19T01:07:20;13.40;48.50
13569;DHT22;6856;51.460;7.158;2023-05-19T01:09:55;13.30;48.50
13569;DHT22;6856;51.460;7.158;2023-05-19T01:12:31;13.30;48.60
13569;DHT22;6856;51.460;7.158;2023-05-19T01:15:06;13.30;48.80
13569;DHT22;6856;51.460;7.158;2023-05-19T01:17:51;13.30;48.70
13569;DHT22;6856;51.460;7.158;2023-05-19T01:20:34;13.20;49.20
13569;DHT22;6856;51.460;7.158;2023-05-19T01:23:26;13.20;49.10
13569;DHT22;6856;51.460;7.158;2023-05-19T01:26:24;13.20;49.40
13569;DHT22;6856;51.460;7.158;2023-05-19T01:29:31;13.10;49.30
13569;DHT22;6856;51.460;7.158;2023-05-19T01:32:18;13.10;49.40
13569;DHT22;6856;51.460;7.158;2023-05-19T01:34:56;13.00;49.30
13569;DHT22;6856;51.460;7.158;2023-05-19T01:37:31;13.00;49.40
13569;DHT22;6856;51.460;7.158;2023-05-19T01:40:07;12.90;49.40
13569;DHT22;6856;51.460;7.158;2023-05-19T01:42:42;12.80;49.50
13569;DHT22;6856;51.460;7.158;2023-05-19T01:45:18;12.80;49.60
13569;DHT22;6856;51.460;7.158;2023-05-19T01:47:57;12.80;49.70
13569;DHT22;6856;51.460;7.158;2023-05-19T01:50:33;12.70;50.40
13569;DHT22;6856;51.460;7.158;2023-05-19T01:53:07;12.60;49.70
13569;DHT22;6856;51.460;7.158;2023-05-19T01:55:46;12.60;49.80
13569;DHT22;6856;51.460;7.158;2023-05-19T01:58:28;12.60;50.10
13569;DHT22;6856;51.460;7.158;2023-05-19T02:01:15;12.50;50.10
13569;DHT22;6856;51.460;7.158;2023-05-19T02:04:12;12.50;50.20
13569;DHT22;6856;51.460;7.158;2023-05-19T02:07:00;12.40;50.20
13569;DHT22;6856;51.460;7.158;2023-05-19T02:09:41;12.40;50.20
13569;DHT22;6856;51.460;7.158;2023-05-19T02:12:27;12.40;50.20
13569;DHT22;6856;51.460;7.158;2023-05-19T02:15:08;12.30;50.20
13569;DHT22;6856;51.460;7.158;2023-05-19T02:17:47;12.30;50.20
13569;DHT22;6856;51.460;7.158;2023-05-19T02:20:28;12.30;50.20
13569;DHT22;6856;51.460;7.158;2023-05-19T02:23:02;12.30;50.90
13569;DHT22;6856;51.460;7.158;2023-05-19T02:25:36;12.30;50.40
13569;DHT22;6856;51.460;7.158;2023-05-19T02:28:09;12.20;50.40
13569;DHT22;6856;51.460;7.158;2023-05-19T02:30:43;12.20;50.50
13569;DHT22;6856;51.460;7.158;2023-05-19T02:33:18;12.20;50.60
13569;DHT22;6856;51.460;7.158;2023-05-19T02:35:57;12.30;50.80
13569;DHT22;6856;51.460;7.158;2023-05-19T02:38:31;12.20;51.40
13569;DHT22;6856;51.460;7.158;2023-05-19T02:41:08;12.30;50.90
13569;DHT22;6856;51.460;7.158;2023-05-19T02:43:42;12.10;51.40
13569;DHT22;6856;51.460;7.158;2023-05-19T02:46:16;12.20;50.90
13569;DHT22;6856;51.460;7.158;2023-05-19T02:48:51;12.10;51.00
13569;DHT22;6856;51.460;7.158;2023-05-19T02:51:28;12.10;51.10
13569;DHT22;6856;51.460;7.158;2023-05-19T02:54:02;12.10;51.00
13569;DHT22;6856;51.460;7.158;2023-05-19T02:56:36;12.10;51.00
13569;DHT22;6856;51.460;7.158;2023-05-19T02:59:10;12.10;51.00
13569;DHT22;6856;51.460;7.158;2023-05-19T03:01:44;12.00;50.90
13569;DHT22;6856;51.460;7.158;2023-05-19T03:04:19;12.00;51.00
13569;DHT22;6856;51.460;7.158;2023-05-19T03:06:55;12.00;50.90
13569;DHT22;6856;51.460;7.158;2023-05-19T03:09:29;12.00;51.00
13569;DHT22;6856;51.460;7.158;2023-05-19T03:12:03;12.00;51.00
13569;DHT22;6856;51.460;7.158;2023-05-19T03:14:39;12.00;51.20
13569;DHT22;6856;51.460;7.158;2023-05-19T03:17:13;12.00;51.20
13569;DHT22;6856;51.460;7.158;2023-05-19T03:19:47;12.00;51.30
13569;DHT22;6856;51.460;7.158;2023-05-19T03:22:24;11.90;51.60
13569;DHT22;6856;51.460;7.158;2023-05-19T03:24:58;11.90;51.40
13569;DHT22;6856;51.460;7.158;2023-05-19T03:27:32;11.90;51.50
13569;DHT22;6856;51.460;7.158;2023-05-19T03:30:08;11.90;51.60
13569;DHT22;6856;51.460;7.158;2023-05-19T03:32:43;11.90;51.70
13569;DHT22;6856;51.460;7.158;2023-05-19T03:35:17;11.80;51.50
13569;DHT22;6856;51.460;7.158;2023-05-19T03:37:53;11.90;51.60
13569;DHT22;6856;51.460;7.158;2023-05-19T03:40:27;11.80;51.60
13569;DHT22;6856;51.460;7.158;2023-05-19T03:43:01;11.80;51.60
13569;DHT22;6856;51.460;7.158;2023-05-19T03:45:35;11.80;51.70
13569;DHT22;6856;51.460;7.158;2023-05-19T03:48:09;11.80;52.20
13569;DHT22;6856;51.460;7.158;2023-05-19T03:50:44;11.70;51.80
13569;DHT22;6856;51.460;7.158;2023-05-19T03:53:21;11.70;51.80
13569;DHT22;6856;51.460;7.158;2023-05-19T03:55:56;11.70;51.80
13569;DHT22;6856;51.460;7.158;2023-05-19T03:58:31;11.70;51.80
13569;DHT22;6856;51.460;7.158;2023-05-19T04:01:08;11.70;51.90
13569;DHT22;6856;51.460;7.158;2023-05-19T04:03:42;11.70;51.90
13569;DHT22;6856;51.460;7.158;2023-05-19T04:06:17;11.70;51.80
13569;DHT22;6856;51.460;7.158;2023-05-19T04:08:53;11.70;52.20
13569;DHT22;6856;51.460;7.158;2023-05-19T04:11:29;11.60;52.70
13569;DHT22;6856;51.460;7.158;2023-05-19T04:14:03;11.60;52.30
13569;DHT22;6856;51.460;7.158;2023-05-19T04:16:37;11.60;52.30
13569;DHT22;6856;51.460;7.158;2023-05-19T04:19:11;11.60;52.50
13569;DHT22;6856;51.460;7.158;2023-05-19T04:21:45;11.60;52.50
13569;DHT22;6856;51.460;7.158;2023-05-19T04:24:22;11.60;52.60
13569;DHT22;6856;51.460;7.158;2023-05-19T04:26:56;11.60;53.30
13569;DHT22;6856;51.460;7.158;2023-05-19T04:29:33;11.60;52.80
13569;DHT22;6856;51.460;7.158;2023-05-19T04:32:07;11.60;52.80
13569;DHT22;6856;51.460;7.158;2023-05-19T04:34:42;11.60;53.00
13569;DHT22;6856;51.460;7.158;2023-05-19T04:37:17;11.60;53.10
13569;DHT22;6856;51.460;7.158;2023-05-19T04:39:54;11.60;53.10
13569;DHT22;6856;51.460;7.158;2023-05-19T04:42:28;11.60;53.20
13569;DHT22;6856;51.460;7.158;2023-05-19T04:45:08;11.70;53.20
13569;DHT22;6856;51.460;7.158;2023-05-19T04:47:44;11.70;53.50
13569;DHT22;6856;51.460;7.158;2023-05-19T04:50:20;11.70;53.50
13569;DHT22;6856;51.460;7.158;2023-05-19T04:52:54;11.70;53.70
13569;DHT22;6856;51.460;7.158;2023-05-19T04:55:31;11.70;53.70
13569;DHT22;6856;51.460;7.158;2023-05-19T04:58:06;11.80;53.90
13569;DHT22;6856;51.460;7.158;2023-05-19T05:00:40;11.80;53.90
13569;DHT22;6856;51.460;7.158;2023-05-19T05:03:14;11.80;53.80
13569;DHT22;6856;51.460;7.158;2023-05-19T05:05:49;11.90;54.00
13569;DHT22;6856;51.460;7.158;2023-05-19T05:08:23;11.90;54.10
13569;DHT22;6856;51.460;7.158;2023-05-19T05:11:01;12.10;54.30
13569;DHT22;6856;51.460;7.158;2023-05-19T05:13:35;12.00;54.40
13569;DHT22;6856;51.460;7.158;2023-05-19T05:16:11;12.00;54.30
13569;DHT22;6856;51.460;7.158;2023-05-19T05:18:48;12.10;54.40
13569;DHT22;6856;51.460;7.158;2023-05-19T05:21:23;12.10;54.40
13569;DHT22;6856;51.460;7.158;2023-05-19T05:23:57;12.20;54.50
13569;DHT22;6856;51.460;7.158;2023-05-19T05:26:33;12.20;54.40
13569;DHT22;6856;51.460;7.158;2023-05-19T05:29:08;12.30;54.50
13569;DHT22;6856;51.460;7.158;2023-05-19T05:31:42;12.30;54.40
13569;DHT22;6856;51.460;7.158;2023-05-19T05:34:16;12.40;54.30
13569;DHT22;6856;51.460;7.158;2023-05-19T05:36:50;12.60;54.50
13569;DHT22;6856;51.460;7.158;2023-05-19T05:39:25;12.50;54.40
13569;DHT22;6856;51.460;7.158;2023-05-19T05:42:00;12.50;54.30
13569;DHT22;6856;51.460;7.158;2023-05-19T05:44:34;12.60;54.30
13569;DHT22;6856;51.460;7.158;2023-05-19T05:47:08;12.70;54.30
13569;DHT22;6856;51.460;7.158;2023-05-19T05:49:43;12.70;54.40
13569;DHT22;6856;51.460;7.158;2023-05-19T05:52:20;12.80;54.30
13569;DHT22;6856;51.460;7.158;2023-05-19T05:54:58;12.90;54.30
13569;DHT22;6856;51.460;7.158;2023-05-19T05:57:34;12.90;54.50
13569;DHT22;6856;51.460;7.158;2023-05-19T06:00:08;13.00;54.30
13569;DHT22;6856;51.460;7.158;2023-05-19T06:02:50;13.10;54.40
13569;DHT22;6856;51.460;7.158;2023-05-19T06:05:24;13.20;54.30
13569;DHT22;6856;51.460;7.158;2023-05-19T06:07:58;13.30;54.20
13569;DHT22;6856;51.460;7.158;2023-05-19T06:10:33;13.40;54.20
13569;DHT22;6856;51.460;7.158;2023-05-19T06:13:12;13.40;54.10
13569;DHT22;6856;51.460;7.158;2023-05-19T06:15:47;13.50;54.00
13569;DHT22;6856;51.460;7.158;2023-05-19T06:18:22;13.60;53.90
13569;DHT22;6856;51.460;7.158;2023-05-19T06:20:56;13.70;53.80
13569;DHT22;6856;51.460;7.158;2023-05-19T06:23:30;13.80;53.70
13569;DHT22;6856;51.460;7.158;2023-05-19T06:26:04;13.70;53.50
13569;DHT22;6856;51.460;7.158;2023-05-19T06:28:40;14.00;53.50
13569;DHT22;6856;51.460;7.158;2023-05-19T06:31:14;14.00;53.30
13569;DHT22;6856;51.460;7.158;2023-05-19T06:33:48;14.10;53.30
13569;DHT22;6856;51.460;7.158;2023-05-19T06:36:24;14.20;53.30
13569;DHT22;6856;51.460;7.158;2023-05-19T06:38:58;14.30;53.10
13569;DHT22;6856;51.460;7.158;2023-05-19T06:41:33;14.40;53.00
13569;DHT22;6856;51.460;7.158;2023-05-19T06:44:08;14.50;52.80
13569;DHT22;6856;51.460;7.158;2023-05-19T06:46:42;14.50;52.90
13569;DHT22;6856;51.460;7.158;2023-05-19T06:49:16;14.60;52.80
13569;DHT22;6856;51.460;7.158;2023-05-19T06:51:51;14.80;52.90
13569;DHT22;6856;51.460;7.158;2023-05-19T06:54:25;14.90;53.00
13569;DHT22;6856;51.460;7.158;2023-05-19T06:57:01;15.00;53.00
13569;DHT22;6856;51.460;7.158;2023-05-19T06:59:37;15.10;52.80
13569;DHT22;6856;51.460;7.158;2023-05-19T07:02:12;15.20;52.60
13569;DHT22;6856;51.460;7.158;2023-05-19T07:04:47;15.30;52.50
13569;DHT22;6856;51.460;7.158;2023-05-19T07:07:22;15.40;52.40
13569;DHT22;6856;51.460;7.158;2023-05-19T07:09:58;15.50;52.20
13569;DHT22;6856;51.460;7.158;2023-05-19T07:12:32;15.60;51.90
13569;DHT22;6856;51.460;7.158;2023-05-19T07:15:09;15.70;51.70
13569;DHT22;6856;51.460;7.158;2023-05-19T07:17:43;15.80;51.70
13569;DHT22;6856;51.460;7.158;2023-05-19T07:20:17;15.90;51.50
13569;DHT22;6856;51.460;7.158;2023-05-19T07:22:51;16.00;51.40
13569;DHT22;6856;51.460;7.158;2023-05-19T07:25:25;16.10;51.40
13569;DHT22;6856;51.460;7.158;2023-05-19T07:28:01;16.20;51.50
13569;DHT22;6856;51.460;7.158;2023-05-19T07:30:37;16.30;51.30
13569;DHT22;6856;51.460;7.158;2023-05-19T07:33:11;16.40;50.90
13569;DHT22;6856;51.460;7.158;2023-05-19T07:35:47;16.50;50.70
13569;DHT22;6856;51.460;7.158;2023-05-19T07:38:21;16.60;51.00
13569;DHT22;6856;51.460;7.158;2023-05-19T07:40:57;16.70;50.50
13569;DHT22;6856;51.460;7.158;2023-05-19T07:43:31;16.80;50.30
13569;DHT22;6856;51.460;7.158;2023-05-19T07:46:06;16.90;50.50
13569;DHT22;6856;51.460;7.158;2023-05-19T07:48:41;17.00;50.40
13569;DHT22;6856;51.460;7.158;2023-05-19T07:51:15;17.10;50.60
13569;DHT22;6856;51.460;7.158;2023-05-19T07:53:50;17.20;50.00
13569;DHT22;6856;51.460;7.158;2023-05-19T07:56:24;17.30;50.00
13569;DHT22;6856;51.460;7.158;2023-05-19T07:58:58;17.40;49.90
13569;DHT22;6856;51.460;7.158;2023-05-19T08:01:33;17.50;49.60
13569;DHT22;6856;51.460;7.158;2023-05-19T08:04:07;17.60;49.50
13569;DHT22;6856;51.460;7.158;2023-05-19T08:06:44;17.70;49.40
13569;DHT22;6856;51.460;7.158;2023-05-19T08:09:18;17.90;49.30
13569;DHT22;6856;51.460;7.158;2023-05-19T08:11:52;18.00;49.00
13569;DHT22;6856;51.460;7.158;2023-05-19T08:14:26;18.10;48.80
13569;DHT22;6856;51.460;7.158;2023-05-19T08:17:01;18.20;48.60
13569;DHT22;6856;51.460;7.158;2023-05-19T08:19:35;18.30;48.20
13569;DHT22;6856;51.460;7.158;2023-05-19T08:22:12;18.40;48.50
13569;DHT22;6856;51.460;7.158;2023-05-19T08:24:46;18.50;48.60
13569;DHT22;6856;51.460;7.158;2023-05-19T08:27:22;18.60;48.40
13569;DHT22;6856;51.460;7.158;2023-05-19T08:29:56;18.70;48.10
13569;DHT22;6856;51.460;7.158;2023-05-19T08:32:32;18.80;48.00
13569;DHT22;6856;51.460;7.158;2023-05-19T08:35:07;18.90;47.60
13569;DHT22;6856;51.460;7.158;2023-05-19T08:37:42;19.10;47.50
13569;DHT22;6856;51.460;7.158;2023-05-19T08:40:16;19.10;47.50
13569;DHT22;6856;51.460;7.158;2023-05-19T08:42:50;19.30;47.40
13569;DHT22;6856;51.460;7.158;2023-05-19T08:45:26;19.40;47.00
13569;DHT22;6856;51.460;7.158;2023-05-19T08:48:03;19.50;46.80
13569;DHT22;6856;51.460;7.158;2023-05-19T08:50:39;19.60;46.40
13569;DHT22;6856;51.460;7.158;2023-05-19T08:53:19;19.70;46.60
13569;DHT22;6856;51.460;7.158;2023-05-19T08:56:09;19.80;46.50
13569;DHT22;6856;51.460;7.158;2023-05-19T08:58:48;19.90;45.80
13569;DHT22;6856;51.460;7.158;2023-05-19T09:01:22;20.00;45.50
13569;DHT22;6856;51.460;7.158;2023-05-19T09:04:00;20.10;45.40
13569;DHT22;6856;51.460;7.158;2023-05-19T09:06:36;20.20;45.20
13569;DHT22;6856;51.460;7.158;2023-05-19T09:09:12;20.30;45.10
13569;DHT22;6856;51.460;7.158;2023-05-19T09:11:48;20.40;44.80
13569;DHT22;6856;51.460;7.158;2023-05-19T09:14:24;20.50;44.30
13569;DHT22;6856;51.460;7.158;2023-05-19T09:16:59;20.50;44.20
13569;DHT22;6856;51.460;7.158;2023-05-19T09:19:41;20.60;44.20
13569;DHT22;6856;51.460;7.158;2023-05-19T09:22:18;20.70;44.10
13569;DHT22;6856;51.460;7.158;2023-05-19T09:24:57;20.80;43.90
13569;DHT22;6856;51.460;7.158;2023-05-19T09:27:32;20.80;43.90
13569;DHT22;6856;51.460;7.158;2023-05-19T09:30:07;21.00;43.90
13569;DHT22;6856;51.460;7.158;2023-05-19T09:32:42;21.10;43.30
13569;DHT22;6856;51.460;7.158;2023-05-19T09:35:17;21.10;43.40
13569;DHT22;6856;51.460;7.158;2023-05-19T09:37:54;21.30;43.40
13569;DHT22;6856;51.460;7.158;2023-05-19T09:40:29;21.40;43.20
13569;DHT22;6856;51.460;7.158;2023-05-19T09:43:07;21.50;42.90
13569;DHT22;6856;51.460;7.158;2023-05-19T09:45:43;21.60;42.80
13569;DHT22;6856;51.460;7.158;2023-05-19T09:48:18;21.70;42.10
13569;DHT22;6856;51.460;7.158;2023-05-19T09:50:54;21.70;42.20
13569;DHT22;6856;51.460;7.158;2023-05-19T09:53:29;21.80;42.30
13569;DHT22;6856;51.460;7.158;2023-05-19T09:56:03;21.90;41.70
13569;DHT22;6856;51.460;7.158;2023-05-19T09:58:40;22.00;42.10
13569;DHT22;6856;51.460;7.158;2023-05-19T10:01:18;22.10;41.90
13569;DHT22;6856;51.460;7.158;2023-05-19T10:03:59;22.10;41.40
13569;DHT22;6856;51.460;7.158;2023-05-19T10:06:41;22.20;41.60
13569;DHT22;6856;51.460;7.158;2023-05-19T10:09:18;22.30;41.90
13569;DHT22;6856;51.460;7.158;2023-05-19T10:11:58;22.40;41.60
13569;DHT22;6856;51.460;7.158;2023-05-19T10:14:31;22.50;41.30
13569;DHT22;6856;51.460;7.158;2023-05-19T10:17:07;22.60;41.00
13569;DHT22;6856;51.460;7.158;2023-05-19T10:19:43;22.70;40.90
13569;DHT22;6856;51.460;7.158;2023-05-19T10:22:19;22.80;40.70
13569;DHT22;6856;51.460;7.158;2023-05-19T10:24:53;22.90;40.60
13569;DHT22;6856;51.460;7.158;2023-05-19T10:27:29;22.90;40.50
13569;DHT22;6856;51.460;7.158;2023-05-19T10:30:09;23.00;40.70
13569;DHT22;6856;51.460;7.158;2023-05-19T10:32:47;23.10;40.30
13569;DHT22;6856;51.460;7.158;2023-05-19T10:35:57;23.20;40.20
13569;DHT22;6856;51.460;7.158;2023-05-19T10:38:52;23.30;40.30
13569;DHT22;6856;51.460;7.158;2023-05-19T10:41:40;23.30;39.70
13569;DHT22;6856;51.460;7.158;2023-05-19T10:44:30;23.40;39.70
13569;DHT22;6856;51.460;7.158;2023-05-19T10:47:13;23.50;39.90
13569;DHT22;6856;51.460;7.158;2023-05-19T10:49:48;23.60;39.70
13569;DHT22;6856;51.460;7.158;2023-05-19T10:52:24;23.60;39.60
13569;DHT22;6856;51.460;7.158;2023-05-19T10:55:03;23.70;39.60
13569;DHT22;6856;51.460;7.158;2023-05-19T10:57:52;23.80;39.20
13569;DHT22;6856;51.460;7.158;2023-05-19T11:00:29;23.80;39.20
13569;DHT22;6856;51.460;7.158;2023-05-19T11:03:13;23.90;39.50
13569;DHT22;6856;51.460;7.158;2023-05-19T11:05:50;24.00;39.20
13569;DHT22;6856;51.460;7.158;2023-05-19T11:08:31;24.10;39.20
13569;DHT22;6856;51.460;7.158;2023-05-19T11:11:14;24.20;38.50
13569;DHT22;6856;51.460;7.158;2023-05-19T11:13:50;24.20;38.90
13569;DHT22;6856;51.460;7.158;2023-05-19T11:16:26;24.30;38.90
13569;DHT22;6856;51.460;7.158;2023-05-19T11:19:03;24.40;38.80
13569;DHT22;6856;51.460;7.158;2023-05-19T11:21:46;24.50;39.10
13569;DHT22;6856;51.460;7.158;2023-05-19T11:24:35;24.60;38.50
13569;DHT22;6856;51.460;7.158;2023-05-19T11:27:19;24.70;38.20
13569;DHT22;6856;51.460;7.158;2023-05-19T11:29:56;24.80;37.90
13569;DHT22;6856;51.460;7.158;2023-05-19T11:32:33;24.90;37.90
13569;DHT22;6856;51.460;7.158;2023-05-19T11:35:17;24.90;38.70
13569;DHT22;6856;51.460;7.158;2023-05-19T11:37:53;25.00;38.00
13569;DHT22;6856;51.460;7.158;2023-05-19T11:40:29;25.00;38.10
13569;DHT22;6856;51.460;7.158;2023-05-19T11:43:05;25.10;37.80
13569;DHT22;6856;51.460;7.158;2023-05-19T11:45:38;25.10;38.30
13569;DHT22;6856;51.460;7.158;2023-05-19T11:48:13;25.20;38.00
13569;DHT22;6856;51.460;7.158;2023-05-19T11:50:49;25.20;37.60
13569;DHT22;6856;51.460;7.158;2023-05-19T11:53:25;25.30;37.00
13569;DHT22;6856;51.460;7.158;2023-05-19T11:56:06;25.30;36.90
13569;DHT22;6856;51.460;7.158;2023-05-19T11:58:41;25.30;37.00
13569;DHT22;6856;51.460;7.158;2023-05-19T12:01:16;25.30;37.10
13569;DHT22;6856;51.460;7.158;2023-05-19T12:03:50;25.40;37.10
13569;DHT22;6856;51.460;7.158;2023-05-19T12:06:26;25.50;37.40
13569;DHT22;6856;51.460;7.158;2023-05-19T12:09:04;25.50;36.80
13569;DHT22;6856;51.460;7.158;2023-05-19T12:11:39;25.60;37.00
13569;DHT22;6856;51.460;7.158;2023-05-19T12:14:14;25.60;36.30
13569;DHT22;6856;51.460;7.158;2023-05-19T12:16:51;25.60;37.10
13569;DHT22;6856;51.460;7.158;2023-05-19T12:19:26;25.70;37.10
13569;DHT22;6856;51.460;7.158;2023-05-19T12:22:00;25.70;36.90
13569;DHT22;6856;51.460;7.158;2023-05-19T12:24:35;25.80;36.90
13569;DHT22;6856;51.460;7.158;2023-05-19T12:27:11;25.80;36.90
13569;DHT22;6856;51.460;7.158;2023-05-19T12:29:51;25.90;36.40
13569;DHT22;6856;51.460;7.158;2023-05-19T12:32:27;25.90;36.00
13569;DHT22;6856;51.460;7.158;2023-05-19T12:35:01;25.90;35.90
13569;DHT22;6856;51.460;7.158;2023-05-19T12:37:40;25.90;36.70
13569;DHT22;6856;51.460;7.158;2023-05-19T12:40:15;25.80;36.00
13569;DHT22;6856;51.460;7.158;2023-05-19T12:42:50;25.80;36.30
13569;DHT22;6856;51.460;7.158;2023-05-19T12:45:34;25.80;36.30
13569;DHT22;6856;51.460;7.158;2023-05-19T12:48:10;25.80;36.00
13569;DHT22;6856;51.460;7.158;2023-05-19T12:50:47;25.90;36.30
13569;DHT22;6856;51.460;7.158;2023-05-19T12:53:21;25.90;36.70
13569;DHT22;6856;51.460;7.158;2023-05-19T12:55:59;25.90;36.00
13569;DHT22;6856;51.460;7.158;2023-05-19T12:58:33;25.90;35.70
13569;DHT22;6856;51.460;7.158;2023-05-19T13:01:17;25.90;35.40
13569;DHT22;6856;51.460;7.158;2023-05-19T13:03:51;25.90;35.60
13569;DHT22;6856;51.460;7.158;2023-05-19T13:06:25;26.00;35.50
13569;DHT22;6856;51.460;7.158;2023-05-19T13:08:59;26.00;35.60
13569;DHT22;6856;51.460;7.158;2023-05-19T13:11:37;26.00;35.90
13569;DHT22;6856;51.460;7.158;2023-05-19T13:14:11;26.00;35.30
13569;DHT22;6856;51.460;7.158;2023-05-19T13:16:48;26.00;35.20
13569;DHT22;6856;51.460;7.158;2023-05-19T13:19:21;26.00;35.50
13569;DHT22;6856;51.460;7.158;2023-05-19T13:21:56;26.00;35.20
13569;DHT22;6856;51.460;7.158;2023-05-19T13:24:31;26.00;35.30
13569;DHT22;6856;51.460;7.158;2023-05-19T13:27:07;26.00;35.00
13569;DHT22;6856;51.460;7.158;2023-05-19T13:29:41;26.00;35.60
13569;DHT22;6856;51.460;7.158;2023-05-19T13:32:16;25.90;34.90
13569;DHT22;6856;51.460;7.158;2023-05-19T13:34:50;25.90;34.60
13569;DHT22;6856;51.460;7.158;2023-05-19T13:37:24;25.90;35.10
13569;DHT22;6856;51.460;7.158;2023-05-19T13:39:59;25.90;34.90
13569;DHT22;6856;51.460;7.158;2023-05-19T13:42:34;25.90;34.70
13569;DHT22;6856;51.460;7.158;2023-05-19T13:45:12;25.90;34.60
13569;DHT22;6856;51.460;7.158;2023-05-19T13:47:49;25.90;34.50
13569;DHT22;6856;51.460;7.158;2023-05-19T13:50:25;25.90;34.00
13569;DHT22;6856;51.460;7.158;2023-05-19T13:52:59;25.90;33.80
13569;DHT22;6856;51.460;7.158;2023-05-19T13:55:33;25.90;34.20
13569;DHT22;6856;51.460;7.158;2023-05-19T13:58:07;25.90;33.80
13569;DHT22;6856;51.460;7.158;2023-05-19T14:00:41;25.90;33.70
13569;DHT22;6856;51.460;7.158;2023-05-19T14:03:18;25.90;33.70
13569;DHT22;6856;51.460;7.158;2023-05-19T14:05:52;25.80;33.20
13569;DHT22;6856;51.460;7.158;2023-05-19T14:08:26;25.80;33.70
13569;DHT22;6856;51.460;7.158;2023-05-19T14:11:02;25.80;34.10
13569;DHT22;6856;51.460;7.158;2023-05-19T14:13:36;25.70;33.90
13569;DHT22;6856;51.460;7.158;2023-05-19T14:16:14;25.70;33.60
13569;DHT22;6856;51.460;7.158;2023-05-19T14:18:49;25.70;33.20
13569;DHT22;6856;51.460;7.158;2023-05-19T14:21:23;25.70;33.00
13569;DHT22;6856;51.460;7.158;2023-05-19T14:23:59;25.60;33.10
13569;DHT22;6856;51.460;7.158;2023-05-19T14:26:33;25.60;33.40
13569;DHT22;6856;51.460;7.158;2023-05-19T14:29:09;25.60;33.30
13569;DHT22;6856;51.460;7.158;2023-05-19T14:31:44;25.60;33.90
13569;DHT22;6856;51.460;7.158;2023-05-19T14:34:19;25.50;33.30
13569;DHT22;6856;51.460;7.158;2023-05-19T14:36:53;25.50;33.10
13569;DHT22;6856;51.460;7.158;2023-05-19T14:39:28;25.50;33.10
13569;DHT22;6856;51.460;7.158;2023-05-19T14:42:02;25.40;33.10
13569;DHT22;6856;51.460;7.158;2023-05-19T14:44:36;25.40;33.00
13569;DHT22;6856;51.460;7.158;2023-05-19T14:47:11;25.30;33.90
13569;DHT22;6856;51.460;7.158;2023-05-19T14:49:47;25.30;33.50
13569;DHT22;6856;51.460;7.158;2023-05-19T14:52:21;25.30;33.20
13569;DHT22;6856;51.460;7.158;2023-05-19T14:54:55;25.30;33.20
13569;DHT22;6856;51.460;7.158;2023-05-19T14:57:29;25.30;34.40
13569;DHT22;6856;51.460;7.158;2023-05-19T15:00:03;25.30;33.60
13569;DHT22;6856;51.460;7.158;2023-05-19T15:02:40;25.30;33.60
13569;DHT22;6856;51.460;7.158;2023-05-19T15:05:16;25.20;33.50
13569;DHT22;6856;51.460;7.158;2023-05-19T15:07:51;25.20;33.10
13569;DHT22;6856;51.460;7.158;2023-05-19T15:10:29;25.20;33.50
13569;DHT22;6856;51.460;7.158;2023-05-19T15:13:08;25.20;33.70
13569;DHT22;6856;51.460;7.158;2023-05-19T15:15:42;25.10;33.40
13569;DHT22;6856;51.460;7.158;2023-05-19T15:18:16;25.10;33.30
13569;DHT22;6856;51.460;7.158;2023-05-19T15:20:52;25.10;33.50
13569;DHT22;6856;51.460;7.158;2023-05-19T15:23:25;25.10;33.90
13569;DHT22;6856;51.460;7.158;2023-05-19T15:26:00;25.00;33.70
13569;DHT22;6856;51.460;7.158;2023-05-19T15:28:35;25.00;33.60
13569;DHT22;6856;51.460;7.158;2023-05-19T15:31:08;25.00;33.80
13569;DHT22;6856;51.460;7.158;2023-05-19T15:33:42;25.00;33.50
13569;DHT22;6856;51.460;7.158;2023-05-19T15:36:18;24.90;33.70
13569;DHT22;6856;51.460;7.158;2023-05-19T15:38:57;24.90;33.40
13569;DHT22;6856;51.460;7.158;2023-05-19T15:41:32;24.90;33.40
13569;DHT22;6856;51.460;7.158;2023-05-19T15:44:05;24.80;33.50
13569;DHT22;6856;51.460;7.158;2023-05-19T15:46:40;24.80;33.70
13569;DHT22;6856;51.460;7.158;2023-05-19T15:49:14;24.80;33.80
13569;DHT22;6856;51.460;7.158;2023-05-19T15:51:50;24.80;33.80
13569;DHT22;6856;51.460;7.158;2023-05-19T15:54:25;24.70;33.80
13569;DHT22;6856;51.460;7.158;2023-05-19T15:57:00;24.70;33.60
13569;DHT22;6856;51.460;7.158;2023-05-19T15:59:34;24.70;33.90
13569;DHT22;6856;51.460;7.158;2023-05-19T16:02:10;24.70;33.80
13569;DHT22;6856;51.460;7.158;2023-05-19T16:04:44;24.70;34.00
13569;DHT22;6856;51.460;7.158;2023-05-19T16:07:20;24.70;33.70
13569;DHT22;6856;51.460;7.158;2023-05-19T16:09:55;24.70;33.70
13569;DHT22;6856;51.460;7.158;2023-05-19T16:12:29;24.70;34.20
13569;DHT22;6856;51.460;7.158;2023-05-19T16:15:04;24.70;33.60
13569;DHT22;6856;51.460;7.158;2023-05-19T16:17:42;24.70;33.50
13569;DHT22;6856;51.460;7.158;2023-05-19T16:20:17;24.70;33.10
13569;DHT22;6856;51.460;7.158;2023-05-19T16:22:53;24.70;33.00
13569;DHT22;6856;51.460;7.158;2023-05-19T16:25:28;24.70;33.10
13569;DHT22;6856;51.460;7.158;2023-05-19T16:28:04;24.60;33.00
13569;DHT22;6856;51.460;7.158;2023-05-19T16:30:37;24.60;33.40
13569;DHT22;6856;51.460;7.158;2023-05-19T16:33:17;24.50;33.00
13569;DHT22;6856;51.460;7.158;2023-05-19T16:35:51;24.50;32.90
13569;DHT22;6856;51.460;7.158;2023-05-19T16:38:28;24.50;33.00
13569;DHT22;6856;51.460;7.158;2023-05-19T16:41:01;24.40;32.70
13569;DHT22;6856;51.460;7.158;2023-05-19T16:43:36;24.40;33.00